sensor_id;sensor_type;location;lat;lon;timestamp;pressure;altitude;pressure_sealevel;temperature;humidity
6387;BME280;3226;42.162;24.756;2022-11-15T00:01:15;100420.41;;;6.30;92.96
6387;BME280;3226;42.162;24.756;2022-11-15T00:03:44;100412.84;;;6.26;92.63
6387;BME280;3226;42.162;24.756;2022-11-15T00:06:13;100418.09;;;6.08;93.32
6387;BME280;3226;42.162;24.756;2022-11-15T00:08:41;100420.34;;;5.97;93.82
6387;BME280;3226;42.162;24.756;2022-11-15T00:11:10;100410.91;;;5.78;94.60
6387;BME280;3226;42.162;24.756;2022-11-15T00:13:39;100401.56;;;5.56;95.29
6387;BME280;3226;42.162;24.756;2022-11-15T00:16:08;100416.84;;;5.62;95.84
6387;BME280;3226;42.162;24.756;2022-11-15T00:18:38;100417.09;;;5.58;96.17
6387;BME280;3226;42.162;24.756;2022-11-15T00:21:12;100409.44;;;5.72;95.43
6387;BME280;3226;42.162;24.756;2022-11-15T00:23:41;100410.72;;;5.63;96.14
6387;BME280;3226;42.162;24.756;2022-11-15T00:26:11;100408.03;;;5.47;97.19
6387;BME280;3226;42.162;24.756;2022-11-15T00:28:40;100416.19;;;5.59;97.06
6387;BME280;3226;42.162;24.756;2022-11-15T00:31:12;100416.09;;;5.60;97.54
6387;BME280;3226;42.162;24.756;2022-11-15T00:33:42;100416.41;;;5.72;96.48
6387;BME280;3226;42.162;24.756;2022-11-15T00:36:12;100418.41;;;5.67;96.85
6387;BME280;3226;42.162;24.756;2022-11-15T00:38:41;100415.56;;;5.71;96.79
6387;BME280;3226;42.162;24.756;2022-11-15T00:41:09;100409.88;;;5.81;96.02
6387;BME280;3226;42.162;24.756;2022-11-15T00:43:36;100403.56;;;5.86;96.18
6387;BME280;3226;42.162;24.756;2022-11-15T00:46:06;100406.09;;;5.88;96.10
6387;BME280;3226;42.162;24.756;2022-11-15T00:48:36;100406.31;;;5.83;96.54
6387;BME280;3226;42.162;24.756;2022-11-15T00:51:05;100402.41;;;5.74;97.49
6387;BME280;3226;42.162;24.756;2022-11-15T00:53:33;100394.59;;;5.74;96.53
6387;BME280;3226;42.162;24.756;2022-11-15T00:56:01;100396.50;;;5.88;95.95
6387;BME280;3226;42.162;24.756;2022-11-15T00:58:30;100384.06;;;5.77;95.30
6387;BME280;3226;42.162;24.756;2022-11-15T01:01:05;100394.44;;;6.13;94.12
6387;BME280;3226;42.162;24.756;2022-11-15T01:03:33;100388.88;;;6.03;94.65
6387;BME280;3226;42.162;24.756;2022-11-15T01:06:01;100382.84;;;6.02;93.66
6387;BME280;3226;42.162;24.756;2022-11-15T01:08:31;100399.72;;;5.93;94.73
6387;BME280;3226;42.162;24.756;2022-11-15T01:11:03;100398.88;;;5.93;95.58
6387;BME280;3226;42.162;24.756;2022-11-15T01:13:31;100395.28;;;5.96;95.55
6387;BME280;3226;42.162;24.756;2022-11-15T01:16:05;100390.75;;;5.99;94.64
6387;BME280;3226;42.162;24.756;2022-11-15T01:18:33;100393.94;;;6.06;94.58
6387;BME280;3226;42.162;24.756;2022-11-15T01:21:05;100372.31;;;6.21;93.24
6387;BME280;3226;42.162;24.756;2022-11-15T01:23:34;100362.50;;;5.93;92.87
6387;BME280;3226;42.162;24.756;2022-11-15T01:26:04;100379.72;;;5.78;93.96
6387;BME280;3226;42.162;24.756;2022-11-15T01:28:35;100380.53;;;5.96;93.49
6387;BME280;3226;42.162;24.756;2022-11-15T01:31:05;100381.94;;;5.86;94.08
6387;BME280;3226;42.162;24.756;2022-11-15T01:33:35;100384.97;;;5.76;95.14
6387;BME280;3226;42.162;24.756;2022-11-15T01:36:04;100361.50;;;5.78;94.82
6387;BME280;3226;42.162;24.756;2022-11-15T01:38:33;100375.72;;;5.88;94.64
6387;BME280;3226;42.162;24.756;2022-11-15T01:41:02;100377.22;;;5.92;94.69
6387;BME280;3226;42.162;24.756;2022-11-15T01:43:32;100371.19;;;6.10;94.37
6387;BME280;3226;42.162;24.756;2022-11-15T01:46:05;100380.69;;;5.93;95.26
6387;BME280;3226;42.162;24.756;2022-11-15T01:48:35;100367.53;;;5.96;94.96
6387;BME280;3226;42.162;24.756;2022-11-15T01:51:06;100370.19;;;5.94;94.83
6387;BME280;3226;42.162;24.756;2022-11-15T01:53:38;100370.13;;;5.96;95.08
6387;BME280;3226;42.162;24.756;2022-11-15T01:56:11;100366.94;;;5.91;95.39
6387;BME280;3226;42.162;24.756;2022-11-15T01:58:41;100365.91;;;5.93;95.85
6387;BME280;3226;42.162;24.756;2022-11-15T02:01:10;100368.22;;;5.82;95.65
6387;BME280;3226;42.162;24.756;2022-11-15T02:03:44;100374.13;;;5.86;94.49
6387;BME280;3226;42.162;24.756;2022-11-15T02:06:14;100371.66;;;5.83;94.60
6387;BME280;3226;42.162;24.756;2022-11-15T02:08:44;100368.78;;;5.71;96.11
6387;BME280;3226;42.162;24.756;2022-11-15T02:11:12;100372.00;;;5.59;96.92
6387;BME280;3226;42.162;24.756;2022-11-15T02:13:40;100373.81;;;5.74;96.50
6387;BME280;3226;42.162;24.756;2022-11-15T02:16:13;100361.34;;;5.81;96.30
6387;BME280;3226;42.162;24.756;2022-11-15T02:18:46;100363.56;;;5.89;96.38
6387;BME280;3226;42.162;24.756;2022-11-15T02:21:23;100364.94;;;5.96;95.77
6387;BME280;3226;42.162;24.756;2022-11-15T02:30:27;100371.88;;;5.96;94.99
6387;BME280;3226;42.162;24.756;2022-11-15T02:33:03;100372.09;;;6.08;94.28
6387;BME280;3226;42.162;24.756;2022-11-15T02:35:42;100361.22;;;6.02;93.82
6387;BME280;3226;42.162;24.756;2022-11-15T02:38:17;100372.56;;;5.99;94.91
6387;BME280;3226;42.162;24.756;2022-11-15T02:40:54;100362.09;;;6.01;94.59
6387;BME280;3226;42.162;24.756;2022-11-15T02:43:28;100329.88;;;5.70;94.63
6387;BME280;3226;42.162;24.756;2022-11-15T02:46:19;100358.59;;;5.84;94.66
6387;BME280;3226;42.162;24.756;2022-11-15T02:49:11;100357.41;;;5.74;94.71
6387;BME280;3226;42.162;24.756;2022-11-15T02:51:42;100360.81;;;5.74;94.49
6387;BME280;3226;42.162;24.756;2022-11-15T02:54:14;100359.47;;;5.67;95.73
6387;BME280;3226;42.162;24.756;2022-11-15T02:56:45;100352.50;;;5.68;95.50
6387;BME280;3226;42.162;24.756;2022-11-15T03:02:18;100351.88;;;5.80;94.99
6387;BME280;3226;42.162;24.756;2022-11-15T03:04:53;100347.97;;;5.71;94.73
6387;BME280;3226;42.162;24.756;2022-11-15T03:07:26;100342.41;;;5.79;95.00
6387;BME280;3226;42.162;24.756;2022-11-15T03:10:02;100345.53;;;5.68;95.12
6387;BME280;3226;42.162;24.756;2022-11-15T03:12:38;100348.75;;;5.73;95.42
6387;BME280;3226;42.162;24.756;2022-11-15T03:15:15;100346.78;;;5.61;96.19
6387;BME280;3226;42.162;24.756;2022-11-15T03:17:52;100357.13;;;5.78;96.47
6387;BME280;3226;42.162;24.756;2022-11-15T03:20:23;100348.91;;;5.88;96.12
6387;BME280;3226;42.162;24.756;2022-11-15T03:22:55;100350.78;;;5.84;96.21
6387;BME280;3226;42.162;24.756;2022-11-15T03:25:25;100349.06;;;5.85;95.68
6387;BME280;3226;42.162;24.756;2022-11-15T03:27:57;100347.47;;;5.98;94.68
6387;BME280;3226;42.162;24.756;2022-11-15T03:30:30;100347.72;;;6.11;94.47
6387;BME280;3226;42.162;24.756;2022-11-15T03:33:02;100349.13;;;6.17;93.76
6387;BME280;3226;42.162;24.756;2022-11-15T03:35:35;100337.25;;;5.95;94.57
6387;BME280;3226;42.162;24.756;2022-11-15T03:38:10;100335.97;;;5.86;94.73
6387;BME280;3226;42.162;24.756;2022-11-15T03:40:40;100344.91;;;5.81;95.55
6387;BME280;3226;42.162;24.756;2022-11-15T03:43:13;100331.41;;;5.74;95.21
6387;BME280;3226;42.162;24.756;2022-11-15T03:45:48;100333.09;;;5.75;94.89
6387;BME280;3226;42.162;24.756;2022-11-15T03:48:22;100329.94;;;5.86;94.07
6387;BME280;3226;42.162;24.756;2022-11-15T03:50:52;100328.38;;;5.82;94.25
6387;BME280;3226;42.162;24.756;2022-11-15T03:53:20;100326.59;;;5.66;94.31
6387;BME280;3226;42.162;24.756;2022-11-15T03:55:48;100319.13;;;5.60;94.56
6387;BME280;3226;42.162;24.756;2022-11-15T03:58:16;100316.72;;;5.73;94.54
6387;BME280;3226;42.162;24.756;2022-11-15T04:00:44;100314.47;;;5.83;94.01
6387;BME280;3226;42.162;24.756;2022-11-15T04:03:12;100318.31;;;5.75;94.11
6387;BME280;3226;42.162;24.756;2022-11-15T04:05:42;100321.16;;;5.71;94.06
6387;BME280;3226;42.162;24.756;2022-11-15T04:08:10;100313.69;;;5.98;93.38
6387;BME280;3226;42.162;24.756;2022-11-15T04:10:38;100312.63;;;6.02;92.16
6387;BME280;3226;42.162;24.756;2022-11-15T04:13:05;100309.72;;;5.91;92.56
6387;BME280;3226;42.162;24.756;2022-11-15T04:15:34;100302.25;;;5.85;92.46
6387;BME280;3226;42.162;24.756;2022-11-15T04:18:02;100296.00;;;5.71;93.11
6387;BME280;3226;42.162;24.756;2022-11-15T04:20:30;100290.16;;;5.68;93.80
6387;BME280;3226;42.162;24.756;2022-11-15T04:23:18;100298.53;;;5.73;94.03
6387;BME280;3226;42.162;24.756;2022-11-15T04:26:05;100294.00;;;5.76;93.45
6387;BME280;3226;42.162;24.756;2022-11-15T04:28:34;100295.09;;;5.72;93.54
6387;BME280;3226;42.162;24.756;2022-11-15T04:31:22;100293.00;;;5.79;93.01
6387;BME280;3226;42.162;24.756;2022-11-15T04:33:51;100293.53;;;5.86;93.27
6387;BME280;3226;42.162;24.756;2022-11-15T04:36:19;100292.16;;;5.78;93.44
6387;BME280;3226;42.162;24.756;2022-11-15T04:39:06;100292.16;;;5.78;93.53
6387;BME280;3226;42.162;24.756;2022-11-15T04:41:34;100294.50;;;5.67;93.60
6387;BME280;3226;42.162;24.756;2022-11-15T04:44:02;100291.72;;;5.70;93.12
6387;BME280;3226;42.162;24.756;2022-11-15T04:46:30;100287.25;;;5.56;93.39
6387;BME280;3226;42.162;24.756;2022-11-15T04:48:58;100296.50;;;5.62;93.69
6387;BME280;3226;42.162;24.756;2022-11-15T04:51:26;100298.72;;;5.52;93.69
6387;BME280;3226;42.162;24.756;2022-11-15T04:53:54;100288.53;;;5.65;92.39
6387;BME280;3226;42.162;24.756;2022-11-15T04:56:23;100294.53;;;5.49;92.32
6387;BME280;3226;42.162;24.756;2022-11-15T04:58:51;100291.84;;;5.51;92.38
6387;BME280;3226;42.162;24.756;2022-11-15T05:01:19;100292.91;;;5.47;92.64
6387;BME280;3226;42.162;24.756;2022-11-15T05:03:47;100290.78;;;5.38;93.11
6387;BME280;3226;42.162;24.756;2022-11-15T05:06:33;100288.34;;;5.34;93.93
6387;BME280;3226;42.162;24.756;2022-11-15T05:09:00;100291.47;;;5.41;94.04
6387;BME280;3226;42.162;24.756;2022-11-15T05:11:30;100286.34;;;5.40;93.99
6387;BME280;3226;42.162;24.756;2022-11-15T05:13:58;100289.25;;;5.51;94.17
6387;BME280;3226;42.162;24.756;2022-11-15T05:16:26;100253.88;;;5.31;94.27
6387;BME280;3226;42.162;24.756;2022-11-15T05:18:54;100292.22;;;5.43;94.69
6387;BME280;3226;42.162;24.756;2022-11-15T05:21:22;100290.47;;;5.44;94.67
6387;BME280;3226;42.162;24.756;2022-11-15T05:23:50;100290.91;;;5.70;94.20
6387;BME280;3226;42.162;24.756;2022-11-15T05:26:18;100291.00;;;5.84;93.04
6387;BME280;3226;42.162;24.756;2022-11-15T05:28:52;100294.47;;;5.85;92.63
6387;BME280;3226;42.162;24.756;2022-11-15T05:31:21;100290.84;;;5.87;92.40
6387;BME280;3226;42.162;24.756;2022-11-15T05:33:49;100284.84;;;5.69;93.14
6387;BME280;3226;42.162;24.756;2022-11-15T05:36:22;100289.00;;;5.56;93.29
6387;BME280;3226;42.162;24.756;2022-11-15T05:38:53;100287.34;;;5.55;94.82
6387;BME280;3226;42.162;24.756;2022-11-15T05:41:26;100287.06;;;5.59;94.93
6387;BME280;3226;42.162;24.756;2022-11-15T05:43:59;100293.03;;;5.61;94.19
6387;BME280;3226;42.162;24.756;2022-11-15T05:46:29;100299.31;;;5.57;95.21
6387;BME280;3226;42.162;24.756;2022-11-15T05:48:57;100295.72;;;5.60;95.25
6387;BME280;3226;42.162;24.756;2022-11-15T05:51:28;100306.66;;;5.67;95.07
6387;BME280;3226;42.162;24.756;2022-11-15T05:53:58;100301.19;;;5.71;95.02
6387;BME280;3226;42.162;24.756;2022-11-15T05:56:26;100307.31;;;5.70;94.66
6387;BME280;3226;42.162;24.756;2022-11-15T05:58:55;100299.69;;;5.67;94.91
6387;BME280;3226;42.162;24.756;2022-11-15T06:01:27;100312.19;;;5.76;95.22
6387;BME280;3226;42.162;24.756;2022-11-15T06:03:55;100310.28;;;5.80;94.47
6387;BME280;3226;42.162;24.756;2022-11-15T06:06:23;100290.84;;;5.54;94.30
6387;BME280;3226;42.162;24.756;2022-11-15T06:08:51;100311.28;;;5.77;94.34
6387;BME280;3226;42.162;24.756;2022-11-15T06:11:19;100313.09;;;5.93;94.41
6387;BME280;3226;42.162;24.756;2022-11-15T06:13:47;100320.88;;;5.93;93.59
6387;BME280;3226;42.162;24.756;2022-11-15T06:16:15;100312.41;;;6.07;92.18
6387;BME280;3226;42.162;24.756;2022-11-15T06:18:45;100321.88;;;6.08;91.82
6387;BME280;3226;42.162;24.756;2022-11-15T06:21:16;100321.72;;;6.27;91.15
6387;BME280;3226;42.162;24.756;2022-11-15T06:23:44;100318.63;;;6.36;90.79
6387;BME280;3226;42.162;24.756;2022-11-15T06:26:12;100325.84;;;6.47;89.07
6387;BME280;3226;42.162;24.756;2022-11-15T06:28:40;100320.13;;;6.57;88.20
6387;BME280;3226;42.162;24.756;2022-11-15T06:31:10;100325.00;;;6.63;87.93
6387;BME280;3226;42.162;24.756;2022-11-15T06:33:39;100320.97;;;6.73;87.28
6387;BME280;3226;42.162;24.756;2022-11-15T06:36:10;100315.59;;;6.76;86.48
6387;BME280;3226;42.162;24.756;2022-11-15T06:38:43;100322.03;;;6.69;86.11
6387;BME280;3226;42.162;24.756;2022-11-15T06:41:13;100325.91;;;6.78;85.10
6387;BME280;3226;42.162;24.756;2022-11-15T06:43:41;100323.47;;;6.75;84.58
6387;BME280;3226;42.162;24.756;2022-11-15T06:46:09;100320.47;;;6.67;84.95
6387;BME280;3226;42.162;24.756;2022-11-15T06:48:38;100330.53;;;6.73;84.91
6387;BME280;3226;42.162;24.756;2022-11-15T06:51:06;100329.19;;;6.82;84.80
6387;BME280;3226;42.162;24.756;2022-11-15T06:53:36;100329.97;;;7.14;83.26
6387;BME280;3226;42.162;24.756;2022-11-15T06:56:05;100326.97;;;7.06;83.79
6387;BME280;3226;42.162;24.756;2022-11-15T06:58:34;100319.53;;;7.14;83.88
6387;BME280;3226;42.162;24.756;2022-11-15T07:01:04;100305.94;;;7.09;83.33
6387;BME280;3226;42.162;24.756;2022-11-15T07:03:34;100323.53;;;7.36;81.73
6387;BME280;3226;42.162;24.756;2022-11-15T07:06:03;100286.59;;;7.44;80.31
6387;BME280;3226;42.162;24.756;2022-11-15T07:08:34;100320.66;;;7.55;80.11
6387;BME280;3226;42.162;24.756;2022-11-15T07:11:05;100307.00;;;7.80;79.31
6387;BME280;3226;42.162;24.756;2022-11-15T07:13:35;100304.94;;;7.71;79.26
6387;BME280;3226;42.162;24.756;2022-11-15T07:16:05;100307.25;;;7.61;80.25
6387;BME280;3226;42.162;24.756;2022-11-15T07:18:34;100290.97;;;7.72;80.23
6387;BME280;3226;42.162;24.756;2022-11-15T07:21:03;100310.34;;;7.82;80.26
6387;BME280;3226;42.162;24.756;2022-11-15T07:23:31;100299.72;;;7.86;79.02
6387;BME280;3226;42.162;24.756;2022-11-15T07:26:00;100283.16;;;7.87;78.82
6387;BME280;3226;42.162;24.756;2022-11-15T07:28:30;100306.31;;;8.06;78.23
6387;BME280;3226;42.162;24.756;2022-11-15T07:30:58;100300.63;;;8.28;76.99
6387;BME280;3226;42.162;24.756;2022-11-15T07:33:29;100298.63;;;8.46;76.40
6387;BME280;3226;42.162;24.756;2022-11-15T07:35:59;100298.53;;;8.48;75.62
6387;BME280;3226;42.162;24.756;2022-11-15T07:38:28;100268.16;;;8.47;75.10
6387;BME280;3226;42.162;24.756;2022-11-15T07:40:57;100304.22;;;8.82;74.57
6387;BME280;3226;42.162;24.756;2022-11-15T07:43:25;100300.84;;;8.67;75.36
6387;BME280;3226;42.162;24.756;2022-11-15T07:45:56;100306.91;;;8.67;75.68
6387;BME280;3226;42.162;24.756;2022-11-15T07:48:25;100302.16;;;8.87;74.39
6387;BME280;3226;42.162;24.756;2022-11-15T07:51:11;100300.91;;;8.65;74.52
6387;BME280;3226;42.162;24.756;2022-11-15T07:53:40;100238.69;;;8.17;75.33
6387;BME280;3226;42.162;24.756;2022-11-15T07:56:09;100297.34;;;8.81;73.92
6387;BME280;3226;42.162;24.756;2022-11-15T07:58:37;100298.34;;;9.06;72.31
6387;BME280;3226;42.162;24.756;2022-11-15T08:01:08;100298.69;;;9.14;72.46
6387;BME280;3226;42.162;24.756;2022-11-15T08:03:37;100290.72;;;9.16;71.84
6387;BME280;3226;42.162;24.756;2022-11-15T08:06:05;100305.47;;;9.04;71.91
6387;BME280;3226;42.162;24.756;2022-11-15T08:08:33;100294.84;;;9.20;71.82
6387;BME280;3226;42.162;24.756;2022-11-15T08:11:01;100293.06;;;9.33;71.40
6387;BME280;3226;42.162;24.756;2022-11-15T08:13:31;100284.91;;;9.25;70.77
6387;BME280;3226;42.162;24.756;2022-11-15T08:16:00;100294.75;;;9.47;70.62
6387;BME280;3226;42.162;24.756;2022-11-15T08:18:29;100292.94;;;9.35;70.50
6387;BME280;3226;42.162;24.756;2022-11-15T08:20:59;100270.56;;;9.44;69.83
6387;BME280;3226;42.162;24.756;2022-11-15T08:23:27;100287.44;;;9.65;69.54
6387;BME280;3226;42.162;24.756;2022-11-15T08:25:59;100251.75;;;9.64;68.82
6387;BME280;3226;42.162;24.756;2022-11-15T08:28:28;100287.06;;;9.96;68.48
6387;BME280;3226;42.162;24.756;2022-11-15T08:30:56;100249.44;;;9.60;68.26
6387;BME280;3226;42.162;24.756;2022-11-15T08:33:25;100256.56;;;9.58;68.81
6387;BME280;3226;42.162;24.756;2022-11-15T08:35:55;100259.69;;;9.63;68.54
6387;BME280;3226;42.162;24.756;2022-11-15T08:38:23;100277.69;;;9.80;68.44
6387;BME280;3226;42.162;24.756;2022-11-15T08:40:52;100272.19;;;10.09;68.24
6387;BME280;3226;42.162;24.756;2022-11-15T08:43:21;100280.66;;;10.13;67.52
6387;BME280;3226;42.162;24.756;2022-11-15T08:45:49;100279.66;;;10.27;68.01
6387;BME280;3226;42.162;24.756;2022-11-15T08:48:16;100275.81;;;10.20;67.43
6387;BME280;3226;42.162;24.756;2022-11-15T08:50:45;100269.69;;;9.95;69.29
6387;BME280;3226;42.162;24.756;2022-11-15T08:53:14;100267.94;;;9.82;69.47
6387;BME280;3226;42.162;24.756;2022-11-15T08:55:42;100200.53;;;9.86;69.08
6387;BME280;3226;42.162;24.756;2022-11-15T08:58:10;100261.03;;;10.45;68.58
6387;BME280;3226;42.162;24.756;2022-11-15T09:00:38;100231.16;;;10.34;68.45
6387;BME280;3226;42.162;24.756;2022-11-15T09:03:07;100251.16;;;9.98;70.09
6387;BME280;3226;42.162;24.756;2022-11-15T09:05:36;100247.25;;;10.17;70.18
6387;BME280;3226;42.162;24.756;2022-11-15T09:08:04;100240.84;;;9.83;72.10
6387;BME280;3226;42.162;24.756;2022-11-15T09:10:54;100241.06;;;9.80;73.71
6387;BME280;3226;42.162;24.756;2022-11-15T09:13:22;100231.56;;;10.17;72.39
6387;BME280;3226;42.162;24.756;2022-11-15T09:15:50;100224.47;;;10.43;71.48
6387;BME280;3226;42.162;24.756;2022-11-15T09:18:18;100215.38;;;10.60;71.32
6387;BME280;3226;42.162;24.756;2022-11-15T09:20:48;100211.34;;;11.03;70.46
6387;BME280;3226;42.162;24.756;2022-11-15T09:23:16;100209.09;;;11.21;70.07
6387;BME280;3226;42.162;24.756;2022-11-15T09:25:44;100207.69;;;11.51;69.72
6387;BME280;3226;42.162;24.756;2022-11-15T09:28:14;100199.78;;;11.74;68.16
6387;BME280;3226;42.162;24.756;2022-11-15T09:31:01;100178.72;;;11.41;68.56
6387;BME280;3226;42.162;24.756;2022-11-15T09:33:29;100195.75;;;11.36;69.66
6387;BME280;3226;42.162;24.756;2022-11-15T09:36:00;100190.59;;;11.11;71.18
6387;BME280;3226;42.162;24.756;2022-11-15T09:38:28;100165.13;;;10.55;72.49
6387;BME280;3226;42.162;24.756;2022-11-15T09:41:13;100187.38;;;10.96;72.00
6387;BME280;3226;42.162;24.756;2022-11-15T09:43:53;100158.00;;;10.68;73.23
6387;BME280;3226;42.162;24.756;2022-11-15T09:46:31;100180.69;;;11.04;72.48
6387;BME280;3226;42.162;24.756;2022-11-15T09:49:01;100140.19;;;10.85;71.42
6387;BME280;3226;42.162;24.756;2022-11-15T09:51:32;100174.44;;;10.70;73.43
6387;BME280;3226;42.162;24.756;2022-11-15T09:54:10;100169.75;;;10.98;73.26
6387;BME280;3226;42.162;24.756;2022-11-15T09:57:04;100157.03;;;10.69;72.60
6387;BME280;3226;42.162;24.756;2022-11-15T09:59:54;100165.41;;;10.75;72.87
6387;BME280;3226;42.162;24.756;2022-11-15T10:02:55;100104.50;;;10.24;72.86
6387;BME280;3226;42.162;24.756;2022-11-15T10:05:26;100158.41;;;10.87;72.01
6387;BME280;3226;42.162;24.756;2022-11-15T10:08:00;100146.66;;;11.15;71.58
6387;BME280;3226;42.162;24.756;2022-11-15T10:10:35;100135.22;;;11.27;71.07
6387;BME280;3226;42.162;24.756;2022-11-15T10:13:13;100147.84;;;11.22;71.04
6387;BME280;3226;42.162;24.756;2022-11-15T10:15:45;100140.56;;;11.49;70.54
6387;BME280;3226;42.162;24.756;2022-11-15T10:18:16;100129.16;;;11.82;69.52
6387;BME280;3226;42.162;24.756;2022-11-15T10:20:48;100124.59;;;12.07;68.22
6387;BME280;3226;42.162;24.756;2022-11-15T10:23:18;100078.75;;;12.11;65.99
6387;BME280;3226;42.162;24.756;2022-11-15T10:25:47;100109.44;;;11.99;66.67
6387;BME280;3226;42.162;24.756;2022-11-15T10:28:17;100112.06;;;12.11;67.28
6387;BME280;3226;42.162;24.756;2022-11-15T10:30:51;100125.59;;;12.49;66.00
6387;BME280;3226;42.162;24.756;2022-11-15T10:33:25;100092.75;;;12.54;65.28
6387;BME280;3226;42.162;24.756;2022-11-15T10:36:19;100116.91;;;12.69;63.96
6387;BME280;3226;42.162;24.756;2022-11-15T10:38:56;100103.59;;;12.40;64.84
6387;BME280;3226;42.162;24.756;2022-11-15T10:41:45;100089.84;;;12.15;66.16
6387;BME280;3226;42.162;24.756;2022-11-15T10:44:25;100104.19;;;11.99;66.14
6387;BME280;3226;42.162;24.756;2022-11-15T10:47:26;100090.53;;;11.84;66.70
6387;BME280;3226;42.162;24.756;2022-11-15T10:49:57;100087.06;;;11.84;66.90
6387;BME280;3226;42.162;24.756;2022-11-15T10:52:26;100070.25;;;12.40;65.52
6387;BME280;3226;42.162;24.756;2022-11-15T10:54:59;100086.06;;;13.02;62.84
6387;BME280;3226;42.162;24.756;2022-11-15T10:57:31;100079.81;;;13.35;61.48
6387;BME280;3226;42.162;24.756;2022-11-15T11:00:02;100076.97;;;13.57;60.36
6387;BME280;3226;42.162;24.756;2022-11-15T11:02:35;100074.50;;;13.15;61.46
6387;BME280;3226;42.162;24.756;2022-11-15T11:05:05;100069.56;;;13.32;60.86
6387;BME280;3226;42.162;24.756;2022-11-15T11:07:35;100068.50;;;13.44;60.25
6387;BME280;3226;42.162;24.756;2022-11-15T11:10:05;100061.59;;;13.12;60.79
6387;BME280;3226;42.162;24.756;2022-11-15T11:13:13;100064.94;;;12.83;61.19
6387;BME280;3226;42.162;24.756;2022-11-15T11:15:43;100059.63;;;13.04;61.17
6387;BME280;3226;42.162;24.756;2022-11-15T11:18:18;100054.25;;;13.06;61.45
6387;BME280;3226;42.162;24.756;2022-11-15T11:20:52;100044.94;;;13.33;60.63
6387;BME280;3226;42.162;24.756;2022-11-15T11:23:38;100049.22;;;12.93;63.39
6387;BME280;3226;42.162;24.756;2022-11-15T11:26:32;100040.66;;;12.91;63.75
6387;BME280;3226;42.162;24.756;2022-11-15T11:29:08;100011.88;;;12.99;63.57
6387;BME280;3226;42.162;24.756;2022-11-15T11:31:48;100021.38;;;13.31;63.15
6387;BME280;3226;42.162;24.756;2022-11-15T11:34:34;100018.75;;;12.49;63.24
6387;BME280;3226;42.162;24.756;2022-11-15T11:37:12;100017.03;;;12.38;63.96
6387;BME280;3226;42.162;24.756;2022-11-15T11:39:50;100015.94;;;12.72;63.07
6387;BME280;3226;42.162;24.756;2022-11-15T11:42:28;100009.78;;;12.31;64.10
6387;BME280;3226;42.162;24.756;2022-11-15T11:45:05;100006.69;;;12.47;63.63
6387;BME280;3226;42.162;24.756;2022-11-15T11:47:47;100004.75;;;12.39;63.73
6387;BME280;3226;42.162;24.756;2022-11-15T11:50:19;100001.44;;;12.78;63.08
6387;BME280;3226;42.162;24.756;2022-11-15T11:52:54;100003.91;;;12.69;63.34
6387;BME280;3226;42.162;24.756;2022-11-15T11:55:33;99999.72;;;12.98;61.56
6387;BME280;3226;42.162;24.756;2022-11-15T11:58:12;99969.66;;;12.50;62.36
6387;BME280;3226;42.162;24.756;2022-11-15T12:00:46;99993.63;;;12.56;63.46
6387;BME280;3226;42.162;24.756;2022-11-15T12:03:27;99985.78;;;12.35;63.97
6387;BME280;3226;42.162;24.756;2022-11-15T12:06:00;99986.72;;;12.34;64.31
6387;BME280;3226;42.162;24.756;2022-11-15T12:08:35;99982.50;;;12.43;63.88
6387;BME280;3226;42.162;24.756;2022-11-15T12:11:12;99988.72;;;12.73;62.60
6387;BME280;3226;42.162;24.756;2022-11-15T12:13:42;99959.47;;;12.56;62.43
6387;BME280;3226;42.162;24.756;2022-11-15T12:16:14;99972.22;;;12.61;62.96
6387;BME280;3226;42.162;24.756;2022-11-15T12:18:47;99948.25;;;12.23;63.95
6387;BME280;3226;42.162;24.756;2022-11-15T12:21:24;99968.19;;;12.57;63.42
6387;BME280;3226;42.162;24.756;2022-11-15T12:24:00;99962.47;;;12.52;63.49
6387;BME280;3226;42.162;24.756;2022-11-15T12:26:34;99960.25;;;12.47;64.64
6387;BME280;3226;42.162;24.756;2022-11-15T12:29:06;99943.38;;;12.50;63.11
6387;BME280;3226;42.162;24.756;2022-11-15T12:31:40;99947.50;;;12.42;63.12
6387;BME280;3226;42.162;24.756;2022-11-15T12:34:40;99947.41;;;12.44;63.13
6387;BME280;3226;42.162;24.756;2022-11-15T12:40:34;99934.63;;;12.08;63.98
6387;BME280;3226;42.162;24.756;2022-11-15T12:46:05;99940.03;;;11.95;64.83
6387;BME280;3226;42.162;24.756;2022-11-15T12:48:48;99931.28;;;12.27;63.51
6387;BME280;3226;42.162;24.756;2022-11-15T12:51:20;99937.22;;;12.29;63.91
6387;BME280;3226;42.162;24.756;2022-11-15T12:53:48;99929.59;;;12.26;63.92
6387;BME280;3226;42.162;24.756;2022-11-15T12:56:22;99928.41;;;11.88;64.97
6387;BME280;3226;42.162;24.756;2022-11-15T12:58:53;99920.25;;;12.03;64.96
6387;BME280;3226;42.162;24.756;2022-11-15T13:04:32;99905.91;;;12.17;64.21
6387;BME280;3226;42.162;24.756;2022-11-15T13:07:02;99915.13;;;12.32;63.68
6387;BME280;3226;42.162;24.756;2022-11-15T13:09:53;99907.03;;;12.14;64.42
6387;BME280;3226;42.162;24.756;2022-11-15T13:12:57;99906.00;;;11.84;64.90
6387;BME280;3226;42.162;24.756;2022-11-15T13:15:51;99906.09;;;11.73;66.25
6387;BME280;3226;42.162;24.756;2022-11-15T13:18:30;99901.72;;;11.62;66.92
6387;BME280;3226;42.162;24.756;2022-11-15T13:21:00;99881.25;;;11.55;67.23
6387;BME280;3226;42.162;24.756;2022-11-15T13:23:52;99894.47;;;11.96;66.37
6387;BME280;3226;42.162;24.756;2022-11-15T13:26:21;99893.31;;;11.89;66.86
6387;BME280;3226;42.162;24.756;2022-11-15T13:28:51;99898.97;;;11.84;66.09
6387;BME280;3226;42.162;24.756;2022-11-15T13:31:30;99877.63;;;11.99;65.27
6387;BME280;3226;42.162;24.756;2022-11-15T13:34:14;99887.16;;;12.21;64.89
6387;BME280;3226;42.162;24.756;2022-11-15T13:37:04;99791.09;;;11.78;64.68
6387;BME280;3226;42.162;24.756;2022-11-15T13:39:37;99888.91;;;12.42;64.68
6387;BME280;3226;42.162;24.756;2022-11-15T13:42:14;99878.53;;;12.09;65.73
6387;BME280;3226;42.162;24.756;2022-11-15T13:44:55;99889.66;;;12.23;65.34
6387;BME280;3226;42.162;24.756;2022-11-15T13:47:26;99877.41;;;12.02;66.33
6387;BME280;3226;42.162;24.756;2022-11-15T13:49:56;99885.88;;;11.94;67.36
6387;BME280;3226;42.162;24.756;2022-11-15T13:52:28;99879.88;;;11.82;67.20
6387;BME280;3226;42.162;24.756;2022-11-15T13:55:02;99883.63;;;11.80;67.82